sensor_id;sensor_type;location;lat;lon;timestamp;P1;durP1;ratioP1;P2;durP2;ratioP2
44642;SDS011;33930;-34.276;150.954;2022-12-24T00:00:38;7.72;;;2.65;;
44642;SDS011;33930;-34.276;150.954;2022-12-24T00:03:05;11.35;;;2.92;;
44642;SDS011;33930;-34.276;150.954;2022-12-24T00:05:33;9.40;;;2.55;;
44642;SDS011;33930;-34.276;150.954;2022-12-24T00:08:02;4.97;;;2.53;;
44642;SDS011;33930;-34.276;150.954;2022-12-24T00:10:29;8.45;;;2.03;;
44642;SDS011;33930;-34.276;150.954;2022-12-24T00:12:57;13.15;;;2.90;;
44642;SDS011;33930;-34.276;150.954;2022-12-24T00:15:24;14.48;;;3.35;;
44642;SDS011;33930;-34.276;150.954;2022-12-24T00:17:51;9.40;;;2.67;;
44642;SDS011;33930;-34.276;150.954;2022-12-24T00:20:18;18.00;;;3.10;;
44642;SDS011;33930;-34.276;150.954;2022-12-24T00:22:46;14.70;;;3.08;;
44642;SDS011;33930;-34.276;150.954;2022-12-24T00:25:13;14.50;;;2.95;;
44642;SDS011;33930;-34.276;150.954;2022-12-24T00:27:40;10.35;;;2.70;;
44642;SDS011;33930;-34.276;150.954;2022-12-24T00:30:08;10.77;;;2.65;;
44642;SDS011;33930;-34.276;150.954;2022-12-24T00:32:35;8.02;;;2.78;;
44642;SDS011;33930;-34.276;150.954;2022-12-24T00:35:03;11.27;;;3.50;;
44642;SDS011;33930;-34.276;150.954;2022-12-24T00:37:30;9.32;;;2.13;;
44642;SDS011;33930;-34.276;150.954;2022-12-24T00:39:58;9.50;;;3.30;;
44642;SDS011;33930;-34.276;150.954;2022-12-24T00:42:25;12.90;;;3.30;;
44642;SDS011;33930;-34.276;150.954;2022-12-24T00:44:52;18.83;;;3.08;;
44642;SDS011;33930;-34.276;150.954;2022-12-24T00:47:20;5.65;;;1.73;;
44642;SDS011;33930;-34.276;150.954;2022-12-24T00:49:47;8.57;;;2.42;;
44642;SDS011;33930;-34.276;150.954;2022-12-24T00:52:14;13.10;;;2.53;;
44642;SDS011;33930;-34.276;150.954;2022-12-24T00:54:41;17.27;;;3.53;;
44642;SDS011;33930;-34.276;150.954;2022-12-24T00:57:09;15.60;;;3.63;;
44642;SDS011;33930;-34.276;150.954;2022-12-24T00:59:36;7.90;;;3.50;;
44642;SDS011;33930;-34.276;150.954;2022-12-24T01:02:03;15.55;;;4.78;;
44642;SDS011;33930;-34.276;150.954;2022-12-24T01:04:30;13.75;;;4.07;;
44642;SDS011;33930;-34.276;150.954;2022-12-24T01:07:16;25.98;;;6.47;;
44642;SDS011;33930;-34.276;150.954;2022-12-24T01:09:43;17.42;;;4.63;;
44642;SDS011;33930;-34.276;150.954;2022-12-24T01:12:11;28.23;;;4.93;;
44642;SDS011;33930;-34.276;150.954;2022-12-24T01:14:38;18.17;;;4.25;;
44642;SDS011;33930;-34.276;150.954;2022-12-24T01:17:05;28.45;;;4.63;;
44642;SDS011;33930;-34.276;150.954;2022-12-24T01:19:32;33.70;;;6.07;;
44642;SDS011;33930;-34.276;150.954;2022-12-24T01:22:00;16.02;;;4.55;;
44642;SDS011;33930;-34.276;150.954;2022-12-24T01:24:27;14.50;;;3.67;;
44642;SDS011;33930;-34.276;150.954;2022-12-24T01:26:55;10.48;;;2.85;;
44642;SDS011;33930;-34.276;150.954;2022-12-24T01:29:22;12.30;;;2.55;;
44642;SDS011;33930;-34.276;150.954;2022-12-24T01:31:49;14.13;;;3.55;;
44642;SDS011;33930;-34.276;150.954;2022-12-24T01:34:16;15.43;;;3.60;;
44642;SDS011;33930;-34.276;150.954;2022-12-24T01:36:44;27.45;;;5.68;;
44642;SDS011;33930;-34.276;150.954;2022-12-24T01:39:11;13.40;;;3.90;;
44642;SDS011;33930;-34.276;150.954;2022-12-24T01:41:38;18.60;;;3.63;;
44642;SDS011;33930;-34.276;150.954;2022-12-24T01:44:25;11.73;;;3.05;;
44642;SDS011;33930;-34.276;150.954;2022-12-24T01:50:11;9.57;;;2.58;;
44642;SDS011;33930;-34.276;150.954;2022-12-24T01:52:40;12.23;;;3.00;;
44642;SDS011;33930;-34.276;150.954;2022-12-24T01:55:09;25.40;;;5.82;;
44642;SDS011;33930;-34.276;150.954;2022-12-24T01:57:48;30.35;;;4.60;;
44642;SDS011;33930;-34.276;150.954;2022-12-24T02:00:21;29.45;;;5.13;;
44642;SDS011;33930;-34.276;150.954;2022-12-24T02:02:49;20.40;;;4.75;;
44642;SDS011;33930;-34.276;150.954;2022-12-24T02:08:23;12.50;;;3.67;;
44642;SDS011;33930;-34.276;150.954;2022-12-24T02:13:49;14.00;;;3.65;;
44642;SDS011;33930;-34.276;150.954;2022-12-24T02:24:14;21.13;;;4.43;;
44642;SDS011;33930;-34.276;150.954;2022-12-24T02:32:23;18.75;;;4.30;;
44642;SDS011;33930;-34.276;150.954;2022-12-24T02:37:51;18.40;;;3.22;;
44642;SDS011;33930;-34.276;150.954;2022-12-24T02:40:33;14.20;;;3.03;;
44642;SDS011;33930;-34.276;150.954;2022-12-24T02:43:06;15.13;;;3.53;;
44642;SDS011;33930;-34.276;150.954;2022-12-24T02:45:38;21.08;;;3.72;;
44642;SDS011;33930;-34.276;150.954;2022-12-24T02:48:08;7.82;;;3.08;;
44642;SDS011;33930;-34.276;150.954;2022-12-24T02:50:36;17.70;;;3.25;;
44642;SDS011;33930;-34.276;150.954;2022-12-24T02:53:04;11.98;;;4.07;;
44642;SDS011;33930;-34.276;150.954;2022-12-24T03:07:13;23.33;;;4.00;;
44642;SDS011;33930;-34.276;150.954;2022-12-24T03:12:37;30.13;;;4.70;;
44642;SDS011;33930;-34.276;150.954;2022-12-24T03:15:08;19.40;;;3.40;;
44642;SDS011;33930;-34.276;150.954;2022-12-24T03:17:38;16.30;;;3.63;;
44642;SDS011;33930;-34.276;150.954;2022-12-24T03:20:08;9.43;;;2.22;;
44642;SDS011;33930;-34.276;150.954;2022-12-24T03:22:37;9.27;;;1.95;;
44642;SDS011;33930;-34.276;150.954;2022-12-24T03:25:05;8.32;;;2.20;;
44642;SDS011;33930;-34.276;150.954;2022-12-24T03:27:32;14.32;;;3.97;;
44642;SDS011;33930;-34.276;150.954;2022-12-24T03:30:02;16.20;;;3.63;;
44642;SDS011;33930;-34.276;150.954;2022-12-24T03:32:33;25.75;;;3.97;;
44642;SDS011;33930;-34.276;150.954;2022-12-24T03:35:00;19.05;;;4.88;;
44642;SDS011;33930;-34.276;150.954;2022-12-24T03:37:28;18.67;;;3.80;;
44642;SDS011;33930;-34.276;150.954;2022-12-24T03:39:55;13.52;;;3.92;;
44642;SDS011;33930;-34.276;150.954;2022-12-24T03:42:23;24.30;;;3.55;;
44642;SDS011;33930;-34.276;150.954;2022-12-24T03:44:50;20.85;;;3.95;;
44642;SDS011;33930;-34.276;150.954;2022-12-24T03:47:17;20.15;;;3.45;;
44642;SDS011;33930;-34.276;150.954;2022-12-24T03:49:45;28.65;;;5.35;;
44642;SDS011;33930;-34.276;150.954;2022-12-24T03:52:12;21.33;;;4.18;;
44642;SDS011;33930;-34.276;150.954;2022-12-24T03:54:39;17.48;;;3.55;;
44642;SDS011;33930;-34.276;150.954;2022-12-24T03:57:07;17.77;;;3.53;;
44642;SDS011;33930;-34.276;150.954;2022-12-24T03:59:34;15.45;;;3.20;;
44642;SDS011;33930;-34.276;150.954;2022-12-24T04:02:01;5.38;;;2.13;;
44642;SDS011;33930;-34.276;150.954;2022-12-24T04:04:29;20.73;;;3.83;;
44642;SDS011;33930;-34.276;150.954;2022-12-24T04:06:58;23.50;;;4.38;;
44642;SDS011;33930;-34.276;150.954;2022-12-24T04:09:25;15.20;;;2.90;;
44642;SDS011;33930;-34.276;150.954;2022-12-24T04:11:53;7.05;;;2.08;;
44642;SDS011;33930;-34.276;150.954;2022-12-24T04:14:20;4.05;;;1.90;;
44642;SDS011;33930;-34.276;150.954;2022-12-24T04:16:47;10.73;;;2.80;;
44642;SDS011;33930;-34.276;150.954;2022-12-24T04:19:14;14.77;;;2.42;;
44642;SDS011;33930;-34.276;150.954;2022-12-24T04:21:42;18.45;;;2.53;;
44642;SDS011;33930;-34.276;150.954;2022-12-24T04:24:09;8.82;;;1.80;;
44642;SDS011;33930;-34.276;150.954;2022-12-24T04:26:37;5.03;;;1.70;;
44642;SDS011;33930;-34.276;150.954;2022-12-24T04:29:04;9.05;;;1.98;;
44642;SDS011;33930;-34.276;150.954;2022-12-24T04:31:32;8.13;;;1.80;;
44642;SDS011;33930;-34.276;150.954;2022-12-24T04:34:00;11.73;;;2.30;;
44642;SDS011;33930;-34.276;150.954;2022-12-24T04:36:27;5.40;;;1.70;;
44642;SDS011;33930;-34.276;150.954;2022-12-24T04:38:54;8.65;;;1.80;;
44642;SDS011;33930;-34.276;150.954;2022-12-24T04:41:22;4.80;;;1.52;;
44642;SDS011;33930;-34.276;150.954;2022-12-24T04:43:50;4.20;;;1.75;;
44642;SDS011;33930;-34.276;150.954;2022-12-24T04:46:20;12.32;;;2.13;;
44642;SDS011;33930;-34.276;150.954;2022-12-24T04:48:50;6.82;;;1.73;;
44642;SDS011;33930;-34.276;150.954;2022-12-24T04:51:19;20.40;;;2.30;;
44642;SDS011;33930;-34.276;150.954;2022-12-24T04:53:47;10.73;;;2.22;;
44642;SDS011;33930;-34.276;150.954;2022-12-24T04:56:15;7.03;;;2.13;;
44642;SDS011;33930;-34.276;150.954;2022-12-24T04:58:46;3.27;;;1.40;;
44642;SDS011;33930;-34.276;150.954;2022-12-24T05:01:20;7.07;;;2.05;;
44642;SDS011;33930;-34.276;150.954;2022-12-24T05:03:49;14.48;;;2.92;;
44642;SDS011;33930;-34.276;150.954;2022-12-24T05:06:23;16.48;;;2.22;;
44642;SDS011;33930;-34.276;150.954;2022-12-24T05:08:55;20.30;;;2.25;;
44642;SDS011;33930;-34.276;150.954;2022-12-24T05:11:23;6.45;;;1.73;;
44642;SDS011;33930;-34.276;150.954;2022-12-24T05:13:51;5.85;;;1.70;;
44642;SDS011;33930;-34.276;150.954;2022-12-24T05:16:19;7.78;;;1.73;;
44642;SDS011;33930;-34.276;150.954;2022-12-24T05:18:47;15.10;;;2.53;;
44642;SDS011;33930;-34.276;150.954;2022-12-24T05:21:16;27.85;;;3.47;;
44642;SDS011;33930;-34.276;150.954;2022-12-24T05:23:48;12.05;;;2.50;;
44642;SDS011;33930;-34.276;150.954;2022-12-24T05:26:39;11.13;;;1.73;;
44642;SDS011;33930;-34.276;150.954;2022-12-24T05:29:09;13.30;;;2.58;;
44642;SDS011;33930;-34.276;150.954;2022-12-24T05:31:37;4.82;;;1.20;;
44642;SDS011;33930;-34.276;150.954;2022-12-24T05:34:06;2.92;;;1.17;;
44642;SDS011;33930;-34.276;150.954;2022-12-24T05:36:34;6.78;;;0.98;;
44642;SDS011;33930;-34.276;150.954;2022-12-24T05:39:02;7.03;;;1.52;;
44642;SDS011;33930;-34.276;150.954;2022-12-24T05:41:29;7.18;;;1.65;;
44642;SDS011;33930;-34.276;150.954;2022-12-24T05:43:57;7.38;;;1.10;;
44642;SDS011;33930;-34.276;150.954;2022-12-24T05:46:24;5.13;;;1.00;;
44642;SDS011;33930;-34.276;150.954;2022-12-24T05:48:52;1.83;;;0.70;;
44642;SDS011;33930;-34.276;150.954;2022-12-24T05:51:19;3.10;;;1.10;;
44642;SDS011;33930;-34.276;150.954;2022-12-24T05:53:48;13.57;;;2.25;;
44642;SDS011;33930;-34.276;150.954;2022-12-24T05:56:17;4.82;;;1.20;;
44642;SDS011;33930;-34.276;150.954;2022-12-24T05:58:46;4.10;;;1.05;;
44642;SDS011;33930;-34.276;150.954;2022-12-24T06:01:14;5.05;;;1.00;;
44642;SDS011;33930;-34.276;150.954;2022-12-24T06:03:42;4.38;;;1.38;;
44642;SDS011;33930;-34.276;150.954;2022-12-24T06:06:10;2.83;;;1.38;;
44642;SDS011;33930;-34.276;150.954;2022-12-24T06:08:39;7.47;;;1.20;;
44642;SDS011;33930;-34.276;150.954;2022-12-24T06:11:09;2.15;;;0.90;;
44642;SDS011;33930;-34.276;150.954;2022-12-24T06:13:37;2.95;;;0.80;;
44642;SDS011;33930;-34.276;150.954;2022-12-24T06:16:06;4.68;;;1.25;;
44642;SDS011;33930;-34.276;150.954;2022-12-24T06:18:37;4.72;;;0.65;;
44642;SDS011;33930;-34.276;150.954;2022-12-24T06:21:04;6.13;;;1.10;;
44642;SDS011;33930;-34.276;150.954;2022-12-24T06:23:34;5.75;;;0.93;;
44642;SDS011;33930;-34.276;150.954;2022-12-24T06:26:03;4.65;;;1.17;;
44642;SDS011;33930;-34.276;150.954;2022-12-24T06:28:32;7.88;;;1.30;;
44642;SDS011;33930;-34.276;150.954;2022-12-24T06:31:01;11.27;;;1.50;;
44642;SDS011;33930;-34.276;150.954;2022-12-24T06:33:30;13.75;;;2.38;;
44642;SDS011;33930;-34.276;150.954;2022-12-24T06:35:58;21.02;;;3.00;;
44642;SDS011;33930;-34.276;150.954;2022-12-24T06:38:25;25.42;;;3.22;;
44642;SDS011;33930;-34.276;150.954;2022-12-24T06:40:55;14.38;;;3.10;;
44642;SDS011;33930;-34.276;150.954;2022-12-24T06:43:23;21.15;;;3.10;;
44642;SDS011;33930;-34.276;150.954;2022-12-24T06:45:50;15.85;;;2.90;;
44642;SDS011;33930;-34.276;150.954;2022-12-24T06:48:18;33.40;;;3.45;;
44642;SDS011;33930;-34.276;150.954;2022-12-24T06:50:45;9.13;;;1.77;;
44642;SDS011;33930;-34.276;150.954;2022-12-24T06:53:12;7.13;;;1.58;;
44642;SDS011;33930;-34.276;150.954;2022-12-24T06:55:40;11.15;;;2.08;;
44642;SDS011;33930;-34.276;150.954;2022-12-24T06:58:07;36.22;;;5.65;;
44642;SDS011;33930;-34.276;150.954;2022-12-24T07:00:34;21.58;;;4.60;;
44642;SDS011;33930;-34.276;150.954;2022-12-24T07:03:02;15.10;;;3.08;;
44642;SDS011;33930;-34.276;150.954;2022-12-24T07:05:29;22.05;;;3.05;;
44642;SDS011;33930;-34.276;150.954;2022-12-24T07:07:56;16.02;;;3.08;;
44642;SDS011;33930;-34.276;150.954;2022-12-24T07:10:24;16.70;;;3.25;;
44642;SDS011;33930;-34.276;150.954;2022-12-24T07:12:51;26.80;;;5.35;;
44642;SDS011;33930;-34.276;150.954;2022-12-24T07:15:18;29.40;;;5.78;;
44642;SDS011;33930;-34.276;150.954;2022-12-24T07:17:46;32.90;;;4.85;;
44642;SDS011;33930;-34.276;150.954;2022-12-24T07:20:13;15.40;;;3.13;;
44642;SDS011;33930;-34.276;150.954;2022-12-24T07:22:41;24.73;;;4.60;;
44642;SDS011;33930;-34.276;150.954;2022-12-24T07:25:09;29.27;;;5.78;;
44642;SDS011;33930;-34.276;150.954;2022-12-24T07:27:37;32.13;;;6.07;;
44642;SDS011;33930;-34.276;150.954;2022-12-24T07:30:04;29.45;;;6.88;;
44642;SDS011;33930;-34.276;150.954;2022-12-24T07:32:32;55.45;;;9.15;;
44642;SDS011;33930;-34.276;150.954;2022-12-24T07:35:00;40.17;;;7.65;;
44642;SDS011;33930;-34.276;150.954;2022-12-24T07:37:27;30.92;;;6.03;;
44642;SDS011;33930;-34.276;150.954;2022-12-24T07:39:55;31.70;;;5.95;;
44642;SDS011;33930;-34.276;150.954;2022-12-24T07:42:22;20.38;;;5.30;;
44642;SDS011;33930;-34.276;150.954;2022-12-24T07:44:49;31.48;;;5.75;;
44642;SDS011;33930;-34.276;150.954;2022-12-24T07:47:17;23.70;;;4.90;;
44642;SDS011;33930;-34.276;150.954;2022-12-24T07:49:44;14.93;;;4.00;;
44642;SDS011;33930;-34.276;150.954;2022-12-24T07:52:11;21.58;;;3.78;;
44642;SDS011;33930;-34.276;150.954;2022-12-24T07:54:39;22.85;;;4.15;;
44642;SDS011;33930;-34.276;150.954;2022-12-24T07:57:06;18.48;;;3.38;;
44642;SDS011;33930;-34.276;150.954;2022-12-24T07:59:33;12.25;;;3.97;;
44642;SDS011;33930;-34.276;150.954;2022-12-24T08:02:01;10.05;;;2.78;;
44642;SDS011;33930;-34.276;150.954;2022-12-24T08:04:29;12.80;;;2.47;;
44642;SDS011;33930;-34.276;150.954;2022-12-24T08:07:02;10.67;;;3.30;;
44642;SDS011;33930;-34.276;150.954;2022-12-24T08:09:33;25.73;;;5.68;;
44642;SDS011;33930;-34.276;150.954;2022-12-24T08:12:02;17.88;;;5.18;;
44642;SDS011;33930;-34.276;150.954;2022-12-24T08:14:29;27.13;;;4.75;;
44642;SDS011;33930;-34.276;150.954;2022-12-24T08:16:57;26.67;;;5.40;;
44642;SDS011;33930;-34.276;150.954;2022-12-24T08:19:24;23.63;;;5.90;;
44642;SDS011;33930;-34.276;150.954;2022-12-24T08:21:52;24.98;;;5.00;;
44642;SDS011;33930;-34.276;150.954;2022-12-24T08:24:19;17.23;;;4.50;;
44642;SDS011;33930;-34.276;150.954;2022-12-24T08:26:47;17.25;;;4.07;;
44642;SDS011;33930;-34.276;150.954;2022-12-24T08:29:14;21.95;;;4.78;;
44642;SDS011;33930;-34.276;150.954;2022-12-24T08:31:41;28.52;;;5.43;;
44642;SDS011;33930;-34.276;150.954;2022-12-24T08:34:09;37.60;;;7.15;;
44642;SDS011;33930;-34.276;150.954;2022-12-24T08:36:36;38.15;;;7.15;;
44642;SDS011;33930;-34.276;150.954;2022-12-24T08:39:04;45.20;;;8.20;;
44642;SDS011;33930;-34.276;150.954;2022-12-24T08:41:33;25.13;;;7.10;;
44642;SDS011;33930;-34.276;150.954;2022-12-24T08:44:01;22.70;;;5.65;;
44642;SDS011;33930;-34.276;150.954;2022-12-24T08:46:29;20.00;;;4.85;;
44642;SDS011;33930;-34.276;150.954;2022-12-24T08:48:56;17.63;;;4.03;;
44642;SDS011;33930;-34.276;150.954;2022-12-24T08:51:23;12.43;;;3.38;;
44642;SDS011;33930;-34.276;150.954;2022-12-24T08:53:51;11.27;;;2.90;;
44642;SDS011;33930;-34.276;150.954;2022-12-24T08:56:18;10.13;;;2.95;;
44642;SDS011;33930;-34.276;150.954;2022-12-24T08:58:45;14.15;;;4.07;;
44642;SDS011;33930;-34.276;150.954;2022-12-24T09:01:15;11.80;;;3.10;;
44642;SDS011;33930;-34.276;150.954;2022-12-24T09:03:44;10.95;;;3.47;;
44642;SDS011;33930;-34.276;150.954;2022-12-24T09:06:11;10.45;;;3.10;;
44642;SDS011;33930;-34.276;150.954;2022-12-24T09:08:39;10.77;;;2.70;;
44642;SDS011;33930;-34.276;150.954;2022-12-24T09:11:09;9.65;;;2.92;;
44642;SDS011;33930;-34.276;150.954;2022-12-24T09:13:40;9.48;;;2.58;;
44642;SDS011;33930;-34.276;150.954;2022-12-24T09:16:09;7.05;;;1.92;;
44642;SDS011;33930;-34.276;150.954;2022-12-24T09:18:36;7.15;;;1.95;;
44642;SDS011;33930;-34.276;150.954;2022-12-24T09:21:08;3.00;;;1.73;;
44642;SDS011;33930;-34.276;150.954;2022-12-24T09:23:39;8.77;;;2.08;;
44642;SDS011;33930;-34.276;150.954;2022-12-24T09:26:09;6.45;;;1.60;;
44642;SDS011;33930;-34.276;150.954;2022-12-24T09:28:45;8.43;;;2.00;;
44642;SDS011;33930;-34.276;150.954;2022-12-24T09:31:12;6.22;;;1.67;;
44642;SDS011;33930;-34.276;150.954;2022-12-24T09:33:41;7.28;;;1.92;;
44642;SDS011;33930;-34.276;150.954;2022-12-24T09:36:09;4.50;;;1.40;;
44642;SDS011;33930;-34.276;150.954;2022-12-24T09:38:37;5.43;;;1.70;;
44642;SDS011;33930;-34.276;150.954;2022-12-24T09:41:39;7.47;;;1.88;;
44642;SDS011;33930;-34.276;150.954;2022-12-24T09:49:51;4.07;;;1.13;;
44642;SDS011;33930;-34.276;150.954;2022-12-24T09:52:42;7.03;;;1.55;;
44642;SDS011;33930;-34.276;150.954;2022-12-24T09:55:16;6.65;;;1.73;;
44642;SDS011;33930;-34.276;150.954;2022-12-24T09:57:57;3.85;;;1.30;;
44642;SDS011;33930;-34.276;150.954;2022-12-24T10:00:28;3.67;;;1.30;;
44642;SDS011;33930;-34.276;150.954;2022-12-24T10:02:58;8.25;;;1.70;;
44642;SDS011;33930;-34.276;150.954;2022-12-24T10:05:30;1.98;;;1.13;;
44642;SDS011;33930;-34.276;150.954;2022-12-24T10:10:52;10.45;;;2.80;;
44642;SDS011;33930;-34.276;150.954;2022-12-24T10:16:28;9.38;;;2.30;;
44642;SDS011;33930;-34.276;150.954;2022-12-24T10:19:19;7.30;;;2.55;;
44642;SDS011;33930;-34.276;150.954;2022-12-24T10:22:15;7.30;;;2.13;;
44642;SDS011;33930;-34.276;150.954;2022-12-24T10:25:10;11.70;;;2.35;;
44642;SDS011;33930;-34.276;150.954;2022-12-24T10:27:55;5.18;;;2.38;;
44642;SDS011;33930;-34.276;150.954;2022-12-24T10:30:26;6.28;;;2.30;;
44642;SDS011;33930;-34.276;150.954;2022-12-24T10:32:53;8.68;;;2.63;;
44642;SDS011;33930;-34.276;150.954;2022-12-24T10:35:22;6.68;;;2.42;;
44642;SDS011;33930;-34.276;150.954;2022-12-24T10:37:50;10.65;;;2.92;;
44642;SDS011;33930;-34.276;150.954;2022-12-24T10:43:16;9.27;;;2.25;;
44642;SDS011;33930;-34.276;150.954;2022-12-24T10:45:47;5.82;;;2.50;;
44642;SDS011;33930;-34.276;150.954;2022-12-24T10:49:18;17.02;;;4.03;;
44642;SDS011;33930;-34.276;150.954;2022-12-24T10:51:21;14.27;;;4.43;;
44642;SDS011;33930;-34.276;150.954;2022-12-24T10:53:53;21.70;;;4.55;;
44642;SDS011;33930;-34.276;150.954;2022-12-24T10:56:54;18.65;;;5.10;;
44642;SDS011;33930;-34.276;150.954;2022-12-24T11:02:23;18.92;;;6.30;;
44642;SDS011;33930;-34.276;150.954;2022-12-24T11:04:53;23.40;;;6.05;;
44642;SDS011;33930;-34.276;150.954;2022-12-24T11:07:22;26.60;;;6.80;;
44642;SDS011;33930;-34.276;150.954;2022-12-24T11:09:56;17.20;;;5.50;;
44642;SDS011;33930;-34.276;150.954;2022-12-24T11:12:30;22.20;;;5.50;;
44642;SDS011;33930;-34.276;150.954;2022-12-24T11:17:42;16.40;;;5.32;;
44642;SDS011;33930;-34.276;150.954;2022-12-24T11:20:25;18.88;;;5.15;;
44642;SDS011;33930;-34.276;150.954;2022-12-24T11:22:54;31.90;;;5.75;;
44642;SDS011;33930;-34.276;150.954;2022-12-24T11:25:31;24.13;;;4.72;;
44642;SDS011;33930;-34.276;150.954;2022-12-24T11:28:11;20.27;;;5.65;;
44642;SDS011;33930;-34.276;150.954;2022-12-24T11:31:00;13.07;;;5.10;;
44642;SDS011;33930;-34.276;150.954;2022-12-24T11:33:45;21.95;;;5.60;;
44642;SDS011;33930;-34.276;150.954;2022-12-24T11:36:13;22.48;;;5.85;;
44642;SDS011;33930;-34.276;150.954;2022-12-24T11:38:51;20.02;;;6.35;;
44642;SDS011;33930;-34.276;150.954;2022-12-24T11:41:19;24.95;;;5.80;;
44642;SDS011;33930;-34.276;150.954;2022-12-24T11:43:49;26.17;;;7.20;;
44642;SDS011;33930;-34.276;150.954;2022-12-24T11:51:39;24.75;;;5.57;;
44642;SDS011;33930;-34.276;150.954;2022-12-24T11:54:25;19.40;;;5.93;;
44642;SDS011;33930;-34.276;150.954;2022-12-24T11:56:56;20.20;;;4.90;;
44642;SDS011;33930;-34.276;150.954;2022-12-24T11:59:34;13.45;;;4.47;;
44642;SDS011;33930;-34.276;150.954;2022-12-24T12:04:41;22.98;;;4.88;;
44642;SDS011;33930;-34.276;150.954;2022-12-24T12:07:17;13.85;;;4.72;;
44642;SDS011;33930;-34.276;150.954;2022-12-24T12:12:20;33.83;;;5.72;;
44642;SDS011;33930;-34.276;150.954;2022-12-24T12:14:54;32.17;;;6.90;;
44642;SDS011;33930;-34.276;150.954;2022-12-24T12:28:14;25.65;;;4.90;;
44642;SDS011;33930;-34.276;150.954;2022-12-24T12:31:33;29.45;;;4.95;;
44642;SDS011;33930;-34.276;150.954;2022-12-24T12:39:46;22.88;;;5.63;;
44642;SDS011;33930;-34.276;150.954;2022-12-24T12:42:22;28.98;;;6.13;;
44642;SDS011;33930;-34.276;150.954;2022-12-24T12:48:09;25.95;;;5.20;;
44642;SDS011;33930;-34.276;150.954;2022-12-24T12:53:43;25.55;;;5.82;;
44642;SDS011;33930;-34.276;150.954;2022-12-24T12:59:03;25.40;;;5.97;;
44642;SDS011;33930;-34.276;150.954;2022-12-24T13:07:50;18.52;;;4.97;;
44642;SDS011;33930;-34.276;150.954;2022-12-24T13:22:00;22.75;;;4.00;;
44642;SDS011;33930;-34.276;150.954;2022-12-24T13:24:29;27.17;;;5.57;;
44642;SDS011;33930;-34.276;150.954;2022-12-24T13:29:29;23.10;;;4.30;;
44642;SDS011;33930;-34.276;150.954;2022-12-24T13:34:49;19.45;;;4.57;;
44642;SDS011;33930;-34.276;150.954;2022-12-24T13:37:31;23.33;;;5.25;;
44642;SDS011;33930;-34.276;150.954;2022-12-24T13:42:46;26.98;;;5.70;;
44642;SDS011;33930;-34.276;150.954;2022-12-24T13:47:56;24.85;;;5.50;;
44642;SDS011;33930;-34.276;150.954;2022-12-24T13:53:01;29.42;;;5.45;;
44642;SDS011;33930;-34.276;150.954;2022-12-24T13:55:30;23.70;;;4.95;;
44642;SDS011;33930;-34.276;150.954;2022-12-24T13:57:59;23.00;;;4.40;;
44642;SDS011;33930;-34.276;150.954;2022-12-24T14:00:30;20.83;;;4.00;;
44642;SDS011;33930;-34.276;150.954;2022-12-24T14:04:01;19.35;;;4.38;;
44642;SDS011;33930;-34.276;150.954;2022-12-24T14:06:35;19.80;;;3.92;;
44642;SDS011;33930;-34.276;150.954;2022-12-24T14:09:13;16.55;;;3.53;;
44642;SDS011;33930;-34.276;150.954;2022-12-24T14:17:25;18.38;;;5.03;;
44642;SDS011;33930;-34.276;150.954;2022-12-24T14:19:58;31.10;;;6.07;;
44642;SDS011;33930;-34.276;150.954;2022-12-24T14:22:31;27.83;;;4.80;;
44642;SDS011;33930;-34.276;150.954;2022-12-24T14:27:50;27.13;;;4.78;;
44642;SDS011;33930;-34.276;150.954;2022-12-24T14:30:46;19.55;;;4.88;;
44642;SDS011;33930;-34.276;150.954;2022-12-24T14:33:32;29.15;;;5.05;;
44642;SDS011;33930;-34.276;150.954;2022-12-24T14:36:00;32.58;;;5.63;;
44642;SDS011;33930;-34.276;150.954;2022-12-24T14:38:28;33.85;;;6.22;;
44642;SDS011;33930;-34.276;150.954;2022-12-24T14:41:07;27.65;;;4.75;;
44642;SDS011;33930;-34.276;150.954;2022-12-24T14:52:34;28.88;;;5.63;;
44642;SDS011;33930;-34.276;150.954;2022-12-24T14:55:26;23.65;;;4.65;;
44642;SDS011;33930;-34.276;150.954;2022-12-24T15:00:47;17.30;;;5.03;;
44642;SDS011;33930;-34.276;150.954;2022-12-24T15:03:16;21.30;;;4.13;;
44642;SDS011;33930;-34.276;150.954;2022-12-24T15:05:49;26.35;;;5.18;;
44642;SDS011;33930;-34.276;150.954;2022-12-24T15:08:38;20.50;;;4.15;;
44642;SDS011;33930;-34.276;150.954;2022-12-24T15:11:13;29.13;;;5.00;;
44642;SDS011;33930;-34.276;150.954;2022-12-24T15:16:17;22.60;;;4.20;;
44642;SDS011;33930;-34.276;150.954;2022-12-24T15:18:51;28.17;;;4.47;;
44642;SDS011;33930;-34.276;150.954;2022-12-24T15:21:45;27.33;;;4.93;;
44642;SDS011;33930;-34.276;150.954;2022-12-24T15:24:24;24.65;;;5.35;;
44642;SDS011;33930;-34.276;150.954;2022-12-24T15:26:52;29.45;;;4.85;;
44642;SDS011;33930;-34.276;150.954;2022-12-24T15:29:25;23.27;;;4.53;;
44642;SDS011;33930;-34.276;150.954;2022-12-24T15:31:58;20.33;;;3.42;;
44642;SDS011;33930;-34.276;150.954;2022-12-24T15:34:28;21.77;;;3.97;;
44642;SDS011;33930;-34.276;150.954;2022-12-24T15:39:37;21.73;;;4.55;;
44642;SDS011;33930;-34.276;150.954;2022-12-24T15:42:05;15.95;;;3.85;;
44642;SDS011;33930;-34.276;150.954;2022-12-24T15:44:54;18.52;;;3.78;;
44642;SDS011;33930;-34.276;150.954;2022-12-24T15:47:34;18.50;;;3.50;;
44642;SDS011;33930;-34.276;150.954;2022-12-24T15:52:44;17.63;;;4.13;;
44642;SDS011;33930;-34.276;150.954;2022-12-24T16:01:02;18.80;;;4.60;;
44642;SDS011;33930;-34.276;150.954;2022-12-24T16:03:37;13.88;;;3.63;;
44642;SDS011;33930;-34.276;150.954;2022-12-24T16:06:06;24.92;;;3.63;;
44642;SDS011;33930;-34.276;150.954;2022-12-24T16:08:39;13.98;;;3.15;;
44642;SDS011;33930;-34.276;150.954;2022-12-24T16:11:09;23.15;;;4.78;;
44642;SDS011;33930;-34.276;150.954;2022-12-24T16:13:41;19.25;;;4.45;;
44642;SDS011;33930;-34.276;150.954;2022-12-24T16:16:16;14.25;;;4.18;;
44642;SDS011;33930;-34.276;150.954;2022-12-24T16:21:19;20.73;;;4.53;;
44642;SDS011;33930;-34.276;150.954;2022-12-24T16:23:52;24.73;;;5.25;;
44642;SDS011;33930;-34.276;150.954;2022-12-24T16:26:21;17.77;;;5.07;;
44642;SDS011;33930;-34.276;150.954;2022-12-24T16:28:49;21.17;;;4.88;;
44642;SDS011;33930;-34.276;150.954;2022-12-24T16:31:16;23.95;;;4.63;;
44642;SDS011;33930;-34.276;150.954;2022-12-24T16:33:53;23.27;;;4.65;;
44642;SDS011;33930;-34.276;150.954;2022-12-24T16:36:22;17.40;;;4.45;;
44642;SDS011;33930;-34.276;150.954;2022-12-24T16:38:50;25.67;;;4.07;;
44642;SDS011;33930;-34.276;150.954;2022-12-24T16:41:35;13.38;;;3.60;;
44642;SDS011;33930;-34.276;150.954;2022-12-24T16:44:22;18.10;;;5.25;;
44642;SDS011;33930;-34.276;150.954;2022-12-24T16:46:51;21.58;;;4.90;;
44642;SDS011;33930;-34.276;150.954;2022-12-24T16:49:19;19.38;;;3.83;;
44642;SDS011;33930;-34.276;150.954;2022-12-24T16:51:47;17.30;;;4.63;;
44642;SDS011;33930;-34.276;150.954;2022-12-24T16:54:15;15.15;;;4.43;;
44642;SDS011;33930;-34.276;150.954;2022-12-24T16:56:43;15.38;;;4.07;;
44642;SDS011;33930;-34.276;150.954;2022-12-24T16:59:18;14.13;;;4.22;;
44642;SDS011;33930;-34.276;150.954;2022-12-24T17:01:48;21.15;;;3.97;;
44642;SDS011;33930;-34.276;150.954;2022-12-24T17:04:16;16.00;;;4.57;;